Terminal Aerodrome Forecast
Issued by NWS Boston, MA

Home | Current Version | Previous Version | Text Only | Print | Product List | Glossary On
Versions: 1 2 3 4 5 6 7 8 9 10 11 12 13 14 15 16 17 18 19 20 21 22 23 24 25 26 27 28 29 30 31 32 33 34 35 36 37 38 39 40 41 42 43 44 45 46 47 48 49 50
000
FTUS41 KBOX 200354 AAA
TAFPVD
TAF AMD
KPVD 200354Z 2004/2024 23008KT P6SM SCT250
     FM201100 21010G17KT P6SM FEW250 WS020/25035KT
     FM201300 25012G22KT P6SM FEW250
     FM202100 26009KT P6SM SCT250=

USA.gov is the U.S. government's official web portal to all federal, state and local government web resources and services.